sensor_id;sensor_type;location;lat;lon;timestamp;P1;durP1;ratioP1;P2;durP2;ratioP2
65998;SDS011;52766;56.008;37.440;2022-09-21T00:00:32;17.00;;;8.98;;
65998;SDS011;52766;56.008;37.440;2022-09-21T00:03:00;14.68;;;7.53;;
65998;SDS011;52766;56.008;37.440;2022-09-21T00:05:36;17.48;;;7.68;;
65998;SDS011;52766;56.008;37.440;2022-09-21T00:08:24;17.35;;;7.30;;
65998;SDS011;52766;56.008;37.440;2022-09-21T00:13:45;16.15;;;7.70;;
65998;SDS011;52766;56.008;37.440;2022-09-21T00:16:12;13.07;;;7.13;;
65998;SDS011;52766;56.008;37.440;2022-09-21T00:18:49;16.35;;;7.70;;
65998;SDS011;52766;56.008;37.440;2022-09-21T00:29:26;16.08;;;8.32;;
65998;SDS011;52766;56.008;37.440;2022-09-21T00:31:57;17.80;;;8.90;;
65998;SDS011;52766;56.008;37.440;2022-09-21T00:34:28;22.50;;;8.65;;
65998;SDS011;52766;56.008;37.440;2022-09-21T00:37:02;18.02;;;8.30;;
65998;SDS011;52766;56.008;37.440;2022-09-21T00:39:37;16.63;;;8.98;;
65998;SDS011;52766;56.008;37.440;2022-09-21T00:45:31;14.05;;;7.10;;
65998;SDS011;52766;56.008;37.440;2022-09-21T00:48:20;13.32;;;7.07;;
65998;SDS011;52766;56.008;37.440;2022-09-21T00:50:51;17.25;;;8.27;;
65998;SDS011;52766;56.008;37.440;2022-09-21T00:53:38;17.88;;;8.82;;
65998;SDS011;52766;56.008;37.440;2022-09-21T00:56:07;17.10;;;7.70;;
65998;SDS011;52766;56.008;37.440;2022-09-21T00:58:58;17.65;;;8.20;;
65998;SDS011;52766;56.008;37.440;2022-09-21T01:01:28;19.65;;;8.50;;
65998;SDS011;52766;56.008;37.440;2022-09-21T01:04:00;14.18;;;7.75;;
65998;SDS011;52766;56.008;37.440;2022-09-21T01:06:39;16.83;;;7.15;;
65998;SDS011;52766;56.008;37.440;2022-09-21T01:09:09;18.55;;;7.55;;
65998;SDS011;52766;56.008;37.440;2022-09-21T01:12:24;14.40;;;8.00;;
65998;SDS011;52766;56.008;37.440;2022-09-21T01:14:47;15.63;;;7.78;;
65998;SDS011;52766;56.008;37.440;2022-09-21T01:27:17;16.25;;;8.90;;
65998;SDS011;52766;56.008;37.440;2022-09-21T01:30:17;20.83;;;8.50;;
65998;SDS011;52766;56.008;37.440;2022-09-21T01:32:57;19.65;;;8.20;;
65998;SDS011;52766;56.008;37.440;2022-09-21T01:35:47;17.02;;;8.48;;
65998;SDS011;52766;56.008;37.440;2022-09-21T01:38:23;17.48;;;9.27;;
65998;SDS011;52766;56.008;37.440;2022-09-21T01:43:50;17.67;;;8.85;;
65998;SDS011;52766;56.008;37.440;2022-09-21T01:46:24;17.27;;;9.48;;
65998;SDS011;52766;56.008;37.440;2022-09-21T01:48:57;14.23;;;8.50;;
65998;SDS011;52766;56.008;37.440;2022-09-21T01:51:34;15.40;;;8.57;;
65998;SDS011;52766;56.008;37.440;2022-09-21T01:54:38;19.80;;;8.93;;
65998;SDS011;52766;56.008;37.440;2022-09-21T02:00:54;15.88;;;9.15;;
65998;SDS011;52766;56.008;37.440;2022-09-21T02:03:41;20.77;;;10.25;;
65998;SDS011;52766;56.008;37.440;2022-09-21T02:09:07;21.67;;;9.88;;
65998;SDS011;52766;56.008;37.440;2022-09-21T02:12:02;17.70;;;9.90;;
65998;SDS011;52766;56.008;37.440;2022-09-21T02:14:30;18.42;;;9.27;;
65998;SDS011;52766;56.008;37.440;2022-09-21T02:17:25;18.40;;;8.93;;
65998;SDS011;52766;56.008;37.440;2022-09-21T02:20:31;32.67;;;16.90;;
65998;SDS011;52766;56.008;37.440;2022-09-21T02:23:07;41.70;;;23.58;;
65998;SDS011;52766;56.008;37.440;2022-09-21T02:25:45;25.17;;;14.57;;
65998;SDS011;52766;56.008;37.440;2022-09-21T02:28:35;23.15;;;11.00;;
65998;SDS011;52766;56.008;37.440;2022-09-21T02:31:33;21.65;;;10.88;;
65998;SDS011;52766;56.008;37.440;2022-09-21T02:34:07;27.95;;;13.73;;
65998;SDS011;52766;56.008;37.440;2022-09-21T02:38:02;24.13;;;14.00;;
65998;SDS011;52766;56.008;37.440;2022-09-21T02:46:33;41.08;;;22.17;;
65998;SDS011;52766;56.008;37.440;2022-09-21T02:49:40;35.53;;;17.35;;
65998;SDS011;52766;56.008;37.440;2022-09-21T02:52:12;35.53;;;18.27;;
65998;SDS011;52766;56.008;37.440;2022-09-21T02:54:48;28.55;;;15.55;;
65998;SDS011;52766;56.008;37.440;2022-09-21T02:57:17;33.65;;;16.75;;
65998;SDS011;52766;56.008;37.440;2022-09-21T02:59:57;27.75;;;14.52;;
65998;SDS011;52766;56.008;37.440;2022-09-21T03:02:26;38.85;;;18.65;;
65998;SDS011;52766;56.008;37.440;2022-09-21T03:08:28;48.30;;;16.08;;
65998;SDS011;52766;56.008;37.440;2022-09-21T03:10:56;109.22;;;22.83;;
65998;SDS011;52766;56.008;37.440;2022-09-21T03:23:49;25.45;;;13.95;;
65998;SDS011;52766;56.008;37.440;2022-09-21T03:26:21;30.60;;;13.90;;
65998;SDS011;52766;56.008;37.440;2022-09-21T03:28:52;26.05;;;14.32;;
65998;SDS011;52766;56.008;37.440;2022-09-21T03:31:39;33.45;;;13.95;;
65998;SDS011;52766;56.008;37.440;2022-09-21T03:34:11;27.27;;;13.55;;
65998;SDS011;52766;56.008;37.440;2022-09-21T03:40:18;27.42;;;14.40;;
65998;SDS011;52766;56.008;37.440;2022-09-21T03:43:18;30.00;;;17.40;;
65998;SDS011;52766;56.008;37.440;2022-09-21T03:49:41;22.55;;;11.25;;
65998;SDS011;52766;56.008;37.440;2022-09-21T03:52:13;24.27;;;11.88;;
65998;SDS011;52766;56.008;37.440;2022-09-21T03:54:46;19.13;;;10.13;;
65998;SDS011;52766;56.008;37.440;2022-09-21T03:57:16;16.27;;;8.93;;
65998;SDS011;52766;56.008;37.440;2022-09-21T03:59:50;19.73;;;9.55;;
65998;SDS011;52766;56.008;37.440;2022-09-21T04:02:18;17.55;;;8.15;;
65998;SDS011;52766;56.008;37.440;2022-09-21T04:08:21;16.80;;;7.72;;
65998;SDS011;52766;56.008;37.440;2022-09-21T04:17:17;15.15;;;6.72;;
65998;SDS011;52766;56.008;37.440;2022-09-21T04:19:44;10.93;;;5.97;;
65998;SDS011;52766;56.008;37.440;2022-09-21T04:22:24;13.45;;;7.00;;
65998;SDS011;52766;56.008;37.440;2022-09-21T04:32:16;10.73;;;6.03;;
65998;SDS011;52766;56.008;37.440;2022-09-21T04:34:44;16.52;;;6.15;;
65998;SDS011;52766;56.008;37.440;2022-09-21T04:37:15;12.57;;;5.50;;
65998;SDS011;52766;56.008;37.440;2022-09-21T04:43:29;18.08;;;7.75;;
65998;SDS011;52766;56.008;37.440;2022-09-21T04:46:35;50.40;;;12.90;;
65998;SDS011;52766;56.008;37.440;2022-09-21T04:49:05;24.85;;;8.23;;
65998;SDS011;52766;56.008;37.440;2022-09-21T04:51:57;29.73;;;11.32;;
65998;SDS011;52766;56.008;37.440;2022-09-21T04:54:32;14.13;;;5.88;;
65998;SDS011;52766;56.008;37.440;2022-09-21T05:00:47;13.23;;;5.63;;
65998;SDS011;52766;56.008;37.440;2022-09-21T05:03:35;19.25;;;6.75;;
65998;SDS011;52766;56.008;37.440;2022-09-21T05:06:06;43.95;;;10.07;;
65998;SDS011;52766;56.008;37.440;2022-09-21T05:09:12;25.30;;;6.95;;
65998;SDS011;52766;56.008;37.440;2022-09-21T05:16:24;12.38;;;5.72;;
65998;SDS011;52766;56.008;37.440;2022-09-21T05:19:57;13.95;;;5.93;;
65998;SDS011;52766;56.008;37.440;2022-09-21T05:23:20;19.33;;;6.78;;
65998;SDS011;52766;56.008;37.440;2022-09-21T05:25:51;42.22;;;8.38;;
65998;SDS011;52766;56.008;37.440;2022-09-21T05:28:35;33.25;;;8.38;;
65998;SDS011;52766;56.008;37.440;2022-09-21T05:40:37;70.95;;;10.32;;
65998;SDS011;52766;56.008;37.440;2022-09-21T05:43:35;59.75;;;9.15;;
65998;SDS011;52766;56.008;37.440;2022-09-21T05:49:59;32.08;;;7.57;;
65998;SDS011;52766;56.008;37.440;2022-09-21T05:56:03;19.65;;;10.45;;
65998;SDS011;52766;56.008;37.440;2022-09-21T06:04:09;16.75;;;8.48;;
65998;SDS011;52766;56.008;37.440;2022-09-21T06:06:40;27.45;;;7.82;;
65998;SDS011;52766;56.008;37.440;2022-09-21T06:09:06;18.00;;;7.70;;
65998;SDS011;52766;56.008;37.440;2022-09-21T06:11:51;17.85;;;6.93;;
65998;SDS011;52766;56.008;37.440;2022-09-21T06:14:32;19.95;;;6.78;;
65998;SDS011;52766;56.008;37.440;2022-09-21T06:17:23;20.05;;;6.95;;
65998;SDS011;52766;56.008;37.440;2022-09-21T06:19:54;18.50;;;7.07;;
65998;SDS011;52766;56.008;37.440;2022-09-21T06:22:22;20.73;;;8.43;;
65998;SDS011;52766;56.008;37.440;2022-09-21T06:24:56;15.75;;;8.45;;
65998;SDS011;52766;56.008;37.440;2022-09-21T06:27:28;14.35;;;7.35;;
65998;SDS011;52766;56.008;37.440;2022-09-21T06:30:23;17.40;;;8.13;;
65998;SDS011;52766;56.008;37.440;2022-09-21T06:33:32;20.08;;;8.63;;
65998;SDS011;52766;56.008;37.440;2022-09-21T06:36:02;20.08;;;7.90;;
65998;SDS011;52766;56.008;37.440;2022-09-21T06:38:29;14.63;;;8.23;;
65998;SDS011;52766;56.008;37.440;2022-09-21T06:41:27;17.63;;;8.18;;
65998;SDS011;52766;56.008;37.440;2022-09-21T06:55:41;12.90;;;7.05;;
65998;SDS011;52766;56.008;37.440;2022-09-21T06:58:08;13.23;;;7.72;;
65998;SDS011;52766;56.008;37.440;2022-09-21T07:00:36;12.95;;;8.27;;
65998;SDS011;52766;56.008;37.440;2022-09-21T07:03:10;14.05;;;6.03;;
65998;SDS011;52766;56.008;37.440;2022-09-21T07:05:44;12.05;;;6.25;;
65998;SDS011;52766;56.008;37.440;2022-09-21T07:08:21;11.05;;;6.20;;
65998;SDS011;52766;56.008;37.440;2022-09-21T07:10:56;9.77;;;5.03;;
65998;SDS011;52766;56.008;37.440;2022-09-21T07:14:09;9.95;;;5.05;;
65998;SDS011;52766;56.008;37.440;2022-09-21T07:17:11;11.45;;;5.82;;
65998;SDS011;52766;56.008;37.440;2022-09-21T07:19:49;8.88;;;4.75;;
65998;SDS011;52766;56.008;37.440;2022-09-21T07:26:40;9.63;;;5.18;;
65998;SDS011;52766;56.008;37.440;2022-09-21T07:30:06;9.32;;;4.93;;
65998;SDS011;52766;56.008;37.440;2022-09-21T07:33:20;8.77;;;5.05;;
65998;SDS011;52766;56.008;37.440;2022-09-21T07:36:20;7.38;;;4.47;;
65998;SDS011;52766;56.008;37.440;2022-09-21T07:39:03;15.25;;;9.32;;
65998;SDS011;52766;56.008;37.440;2022-09-21T07:42:03;7.50;;;3.58;;
65998;SDS011;52766;56.008;37.440;2022-09-21T07:48:38;7.80;;;3.95;;
65998;SDS011;52766;56.008;37.440;2022-09-21T07:51:21;7.97;;;3.85;;
65998;SDS011;52766;56.008;37.440;2022-09-21T07:55:28;6.30;;;3.45;;
65998;SDS011;52766;56.008;37.440;2022-09-21T07:58:30;9.30;;;3.95;;
65998;SDS011;52766;56.008;37.440;2022-09-21T08:02:04;9.07;;;4.30;;
65998;SDS011;52766;56.008;37.440;2022-09-21T08:08:34;7.75;;;4.32;;
65998;SDS011;52766;56.008;37.440;2022-09-21T08:11:46;10.98;;;4.28;;
65998;SDS011;52766;56.008;37.440;2022-09-21T08:14:50;6.32;;;3.35;;
65998;SDS011;52766;56.008;37.440;2022-09-21T08:24:41;7.15;;;3.75;;
65998;SDS011;52766;56.008;37.440;2022-09-21T08:27:51;4.75;;;2.72;;
65998;SDS011;52766;56.008;37.440;2022-09-21T08:31:09;5.00;;;2.45;;
65998;SDS011;52766;56.008;37.440;2022-09-21T08:34:33;5.47;;;3.17;;
65998;SDS011;52766;56.008;37.440;2022-09-21T08:37:32;4.93;;;3.10;;
65998;SDS011;52766;56.008;37.440;2022-09-21T08:50:58;4.47;;;2.50;;
65998;SDS011;52766;56.008;37.440;2022-09-21T08:55:15;6.95;;;3.75;;
65998;SDS011;52766;56.008;37.440;2022-09-21T09:17:39;6.60;;;3.63;;
65998;SDS011;52766;56.008;37.440;2022-09-21T09:20:20;6.45;;;3.38;;
65998;SDS011;52766;56.008;37.440;2022-09-21T09:23:21;5.25;;;3.50;;
65998;SDS011;52766;56.008;37.440;2022-09-21T09:25:49;7.50;;;3.97;;
65998;SDS011;52766;56.008;37.440;2022-09-21T09:31:10;8.80;;;3.20;;
65998;SDS011;52766;56.008;37.440;2022-09-21T09:37:09;7.03;;;2.72;;
65998;SDS011;52766;56.008;37.440;2022-09-21T09:39:53;5.72;;;3.17;;
65998;SDS011;52766;56.008;37.440;2022-09-21T09:42:49;7.18;;;3.20;;
65998;SDS011;52766;56.008;37.440;2022-09-21T09:52:10;5.68;;;3.03;;
65998;SDS011;52766;56.008;37.440;2022-09-21T09:54:56;6.07;;;3.03;;
65998;SDS011;52766;56.008;37.440;2022-09-21T09:57:28;6.72;;;3.53;;
65998;SDS011;52766;56.008;37.440;2022-09-21T09:59:57;5.03;;;3.30;;
65998;SDS011;52766;56.008;37.440;2022-09-21T10:02:48;6.15;;;3.10;;
65998;SDS011;52766;56.008;37.440;2022-09-21T10:05:32;8.60;;;4.55;;
65998;SDS011;52766;56.008;37.440;2022-09-21T10:08:42;5.72;;;3.00;;
65998;SDS011;52766;56.008;37.440;2022-09-21T10:11:21;6.03;;;3.17;;
65998;SDS011;52766;56.008;37.440;2022-09-21T10:22:06;4.97;;;2.80;;
65998;SDS011;52766;56.008;37.440;2022-09-21T10:24:43;6.95;;;3.10;;
65998;SDS011;52766;56.008;37.440;2022-09-21T10:27:17;8.07;;;2.65;;
65998;SDS011;52766;56.008;37.440;2022-09-21T10:34:34;3.58;;;2.10;;
65998;SDS011;52766;56.008;37.440;2022-09-21T10:40:54;7.15;;;2.30;;
65998;SDS011;52766;56.008;37.440;2022-09-21T10:43:45;5.35;;;2.15;;
65998;SDS011;52766;56.008;37.440;2022-09-21T10:46:33;2.53;;;1.52;;
65998;SDS011;52766;56.008;37.440;2022-09-21T10:49:10;3.30;;;1.80;;
65998;SDS011;52766;56.008;37.440;2022-09-21T10:52:01;4.68;;;2.00;;
65998;SDS011;52766;56.008;37.440;2022-09-21T10:54:31;3.95;;;2.00;;
65998;SDS011;52766;56.008;37.440;2022-09-21T11:03:46;2.88;;;1.98;;
65998;SDS011;52766;56.008;37.440;2022-09-21T11:06:15;5.18;;;1.70;;
65998;SDS011;52766;56.008;37.440;2022-09-21T11:20:57;3.38;;;1.80;;
65998;SDS011;52766;56.008;37.440;2022-09-21T11:24:18;3.10;;;1.67;;
65998;SDS011;52766;56.008;37.440;2022-09-21T11:32:53;3.15;;;1.38;;
65998;SDS011;52766;56.008;37.440;2022-09-21T11:53:37;4.22;;;1.80;;
65998;SDS011;52766;56.008;37.440;2022-09-21T11:59:44;4.43;;;1.30;;
65998;SDS011;52766;56.008;37.440;2022-09-21T12:14:00;5.72;;;1.80;;
65998;SDS011;52766;56.008;37.440;2022-09-21T12:19:28;3.97;;;1.75;;
65998;SDS011;52766;56.008;37.440;2022-09-21T12:22:11;3.03;;;1.38;;
65998;SDS011;52766;56.008;37.440;2022-09-21T12:24:49;3.35;;;1.85;;
65998;SDS011;52766;56.008;37.440;2022-09-21T12:27:35;1.60;;;1.17;;
65998;SDS011;52766;56.008;37.440;2022-09-21T12:30:20;4.40;;;2.33;;
65998;SDS011;52766;56.008;37.440;2022-09-21T12:33:13;4.28;;;2.40;;
65998;SDS011;52766;56.008;37.440;2022-09-21T12:36:15;5.55;;;2.22;;
65998;SDS011;52766;56.008;37.440;2022-09-21T12:39:11;2.85;;;1.60;;
65998;SDS011;52766;56.008;37.440;2022-09-21T12:45:34;3.35;;;1.52;;
65998;SDS011;52766;56.008;37.440;2022-09-21T12:52:23;3.50;;;1.65;;
65998;SDS011;52766;56.008;37.440;2022-09-21T13:02:33;2.95;;;1.58;;
65998;SDS011;52766;56.008;37.440;2022-09-21T13:05:43;3.28;;;2.00;;
65998;SDS011;52766;56.008;37.440;2022-09-21T13:08:56;5.35;;;1.83;;
65998;SDS011;52766;56.008;37.440;2022-09-21T13:11:52;3.33;;;1.90;;
65998;SDS011;52766;56.008;37.440;2022-09-21T13:14:35;4.35;;;2.25;;
65998;SDS011;52766;56.008;37.440;2022-09-21T13:20:27;7.68;;;3.55;;
65998;SDS011;52766;56.008;37.440;2022-09-21T13:23:02;5.38;;;1.80;;
65998;SDS011;52766;56.008;37.440;2022-09-21T13:26:43;3.83;;;2.30;;
65998;SDS011;52766;56.008;37.440;2022-09-21T13:29:42;4.10;;;2.10;;
65998;SDS011;52766;56.008;37.440;2022-09-21T13:34:40;4.65;;;1.77;;
65998;SDS011;52766;56.008;37.440;2022-09-21T13:39:44;4.45;;;2.08;;
65998;SDS011;52766;56.008;37.440;2022-09-21T13:47:40;3.65;;;1.65;;
65998;SDS011;52766;56.008;37.440;2022-09-21T13:50:11;3.45;;;1.80;;
65998;SDS011;52766;56.008;37.440;2022-09-21T13:52:49;3.40;;;1.83;;
65998;SDS011;52766;56.008;37.440;2022-09-21T13:57:57;7.30;;;3.20;;
65998;SDS011;52766;56.008;37.440;2022-09-21T14:00:31;4.18;;;1.70;;
65998;SDS011;52766;56.008;37.440;2022-09-21T14:02:59;2.33;;;1.55;;
65998;SDS011;52766;56.008;37.440;2022-09-21T14:06:33;3.15;;;1.70;;
65998;SDS011;52766;56.008;37.440;2022-09-21T14:09:07;4.53;;;2.13;;
65998;SDS011;52766;56.008;37.440;2022-09-21T14:11:58;6.28;;;2.85;;
65998;SDS011;52766;56.008;37.440;2022-09-21T14:16:54;6.45;;;2.60;;
65998;SDS011;52766;56.008;37.440;2022-09-21T14:41:43;6.50;;;3.17;;
65998;SDS011;52766;56.008;37.440;2022-09-21T14:44:51;7.57;;;3.08;;
65998;SDS011;52766;56.008;37.440;2022-09-21T15:06:33;13.00;;;6.60;;
65998;SDS011;52766;56.008;37.440;2022-09-21T15:19:28;13.32;;;6.47;;
65998;SDS011;52766;56.008;37.440;2022-09-21T15:25:14;11.40;;;5.20;;
65998;SDS011;52766;56.008;37.440;2022-09-21T15:27:46;8.82;;;4.75;;
65998;SDS011;52766;56.008;37.440;2022-09-21T15:30:26;8.25;;;4.25;;
65998;SDS011;52766;56.008;37.440;2022-09-21T15:35:59;7.88;;;3.47;;
65998;SDS011;52766;56.008;37.440;2022-09-21T15:38:40;6.13;;;3.17;;
65998;SDS011;52766;56.008;37.440;2022-09-21T15:41:47;8.70;;;4.50;;
65998;SDS011;52766;56.008;37.440;2022-09-21T15:44:23;5.72;;;3.20;;
65998;SDS011;52766;56.008;37.440;2022-09-21T15:47:10;5.88;;;3.05;;
65998;SDS011;52766;56.008;37.440;2022-09-21T15:49:51;6.22;;;3.03;;
65998;SDS011;52766;56.008;37.440;2022-09-21T15:52:33;5.80;;;2.63;;
65998;SDS011;52766;56.008;37.440;2022-09-21T15:55:17;4.78;;;2.70;;
65998;SDS011;52766;56.008;37.440;2022-09-21T15:57:48;5.10;;;2.53;;
65998;SDS011;52766;56.008;37.440;2022-09-21T16:00:19;4.85;;;2.78;;
65998;SDS011;52766;56.008;37.440;2022-09-21T16:09:35;4.93;;;2.92;;
65998;SDS011;52766;56.008;37.440;2022-09-21T16:16:01;5.45;;;3.08;;
65998;SDS011;52766;56.008;37.440;2022-09-21T16:18:54;7.25;;;3.72;;
65998;SDS011;52766;56.008;37.440;2022-09-21T16:22:12;6.35;;;3.60;;
65998;SDS011;52766;56.008;37.440;2022-09-21T16:25:01;5.25;;;2.38;;
65998;SDS011;52766;56.008;37.440;2022-09-21T16:30:49;5.65;;;3.17;;
65998;SDS011;52766;56.008;37.440;2022-09-21T16:38:59;5.70;;;3.05;;
65998;SDS011;52766;56.008;37.440;2022-09-21T16:41:43;5.88;;;3.03;;
65998;SDS011;52766;56.008;37.440;2022-09-21T16:44:30;6.43;;;4.07;;
65998;SDS011;52766;56.008;37.440;2022-09-21T16:47:18;7.82;;;4.90;;
65998;SDS011;52766;56.008;37.440;2022-09-21T16:49:56;7.85;;;6.05;;
65998;SDS011;52766;56.008;37.440;2022-09-21T16:52:34;8.68;;;5.97;;
65998;SDS011;52766;56.008;37.440;2022-09-21T16:55:08;8.55;;;5.50;;
65998;SDS011;52766;56.008;37.440;2022-09-21T16:57:40;10.65;;;6.68;;
65998;SDS011;52766;56.008;37.440;2022-09-21T17:00:09;7.20;;;4.45;;
65998;SDS011;52766;56.008;37.440;2022-09-21T17:02:49;8.90;;;4.97;;
65998;SDS011;52766;56.008;37.440;2022-09-21T17:05:22;7.82;;;4.40;;
65998;SDS011;52766;56.008;37.440;2022-09-21T17:07:57;7.85;;;4.32;;
65998;SDS011;52766;56.008;37.440;2022-09-21T17:10:38;7.93;;;4.30;;
65998;SDS011;52766;56.008;37.440;2022-09-21T17:13:23;8.10;;;4.07;;
65998;SDS011;52766;56.008;37.440;2022-09-21T17:16:02;7.22;;;4.03;;
65998;SDS011;52766;56.008;37.440;2022-09-21T17:24:07;7.60;;;4.18;;
65998;SDS011;52766;56.008;37.440;2022-09-21T17:26:36;8.90;;;4.80;;
65998;SDS011;52766;56.008;37.440;2022-09-21T17:29:28;7.53;;;3.90;;
65998;SDS011;52766;56.008;37.440;2022-09-21T17:32:11;8.48;;;4.20;;
65998;SDS011;52766;56.008;37.440;2022-09-21T17:34:39;7.55;;;4.28;;
65998;SDS011;52766;56.008;37.440;2022-09-21T17:38:11;8.52;;;3.83;;
65998;SDS011;52766;56.008;37.440;2022-09-21T17:41:05;7.93;;;4.28;;
65998;SDS011;52766;56.008;37.440;2022-09-21T17:43:43;6.85;;;3.97;;
65998;SDS011;52766;56.008;37.440;2022-09-21T17:46:40;7.43;;;3.70;;
65998;SDS011;52766;56.008;37.440;2022-09-21T17:49:26;7.75;;;4.07;;
65998;SDS011;52766;56.008;37.440;2022-09-21T17:51:56;7.35;;;4.07;;
65998;SDS011;52766;56.008;37.440;2022-09-21T17:54:49;9.68;;;4.47;;
65998;SDS011;52766;56.008;37.440;2022-09-21T17:57:31;14.48;;;7.03;;
65998;SDS011;52766;56.008;37.440;2022-09-21T18:00:34;10.27;;;4.75;;
65998;SDS011;52766;56.008;37.440;2022-09-21T18:03:28;8.55;;;3.83;;
65998;SDS011;52766;56.008;37.440;2022-09-21T18:06:47;6.97;;;3.55;;
65998;SDS011;52766;56.008;37.440;2022-09-21T18:10:10;7.70;;;3.65;;
65998;SDS011;52766;56.008;37.440;2022-09-21T18:16:02;10.27;;;4.30;;
65998;SDS011;52766;56.008;37.440;2022-09-21T18:22:36;7.68;;;4.15;;
65998;SDS011;52766;56.008;37.440;2022-09-21T18:25:44;8.57;;;4.00;;
65998;SDS011;52766;56.008;37.440;2022-09-21T18:28:43;8.70;;;3.92;;
65998;SDS011;52766;56.008;37.440;2022-09-21T18:35:59;6.63;;;3.58;;
65998;SDS011;52766;56.008;37.440;2022-09-21T18:45:29;10.95;;;5.40;;
65998;SDS011;52766;56.008;37.440;2022-09-21T18:55:10;14.55;;;4.70;;
65998;SDS011;52766;56.008;37.440;2022-09-21T18:57:55;10.57;;;5.55;;
65998;SDS011;52766;56.008;37.440;2022-09-21T19:00:26;13.77;;;6.28;;
65998;SDS011;52766;56.008;37.440;2022-09-21T19:03:02;11.88;;;6.18;;
65998;SDS011;52766;56.008;37.440;2022-09-21T19:05:39;10.27;;;5.40;;
65998;SDS011;52766;56.008;37.440;2022-09-21T19:11:12;8.50;;;4.72;;
65998;SDS011;52766;56.008;37.440;2022-09-21T19:13:47;9.68;;;5.22;;
65998;SDS011;52766;56.008;37.440;2022-09-21T19:19:12;9.75;;;5.03;;
65998;SDS011;52766;56.008;37.440;2022-09-21T19:30:07;8.15;;;4.32;;
65998;SDS011;52766;56.008;37.440;2022-09-21T19:32:53;9.48;;;5.18;;
65998;SDS011;52766;56.008;37.440;2022-09-21T19:35:28;9.70;;;5.10;;
65998;SDS011;52766;56.008;37.440;2022-09-21T19:38:06;8.20;;;5.03;;
65998;SDS011;52766;56.008;37.440;2022-09-21T19:40:42;7.45;;;4.57;;
65998;SDS011;52766;56.008;37.440;2022-09-21T19:48:47;9.38;;;4.93;;
65998;SDS011;52766;56.008;37.440;2022-09-21T19:51:49;8.93;;;4.82;;
65998;SDS011;52766;56.008;37.440;2022-09-21T19:54:19;8.43;;;4.43;;
65998;SDS011;52766;56.008;37.440;2022-09-21T19:57:15;10.27;;;4.80;;
65998;SDS011;52766;56.008;37.440;2022-09-21T20:00:06;10.00;;;4.70;;
65998;SDS011;52766;56.008;37.440;2022-09-21T20:09:05;10.38;;;6.03;;
65998;SDS011;52766;56.008;37.440;2022-09-21T20:14:30;9.23;;;4.63;;
65998;SDS011;52766;56.008;37.440;2022-09-21T20:16:59;7.82;;;4.25;;
65998;SDS011;52766;56.008;37.440;2022-09-21T20:19:42;9.65;;;4.78;;
65998;SDS011;52766;56.008;37.440;2022-09-21T20:22:48;10.00;;;4.85;;
65998;SDS011;52766;56.008;37.440;2022-09-21T20:28:25;7.85;;;4.50;;
65998;SDS011;52766;56.008;37.440;2022-09-21T20:30:52;8.05;;;3.97;;
65998;SDS011;52766;56.008;37.440;2022-09-21T20:33:21;9.45;;;4.72;;
65998;SDS011;52766;56.008;37.440;2022-09-21T20:35:49;10.02;;;4.90;;
65998;SDS011;52766;56.008;37.440;2022-09-21T20:38:17;10.75;;;4.95;;
65998;SDS011;52766;56.008;37.440;2022-09-21T20:40:46;10.00;;;4.75;;
65998;SDS011;52766;56.008;37.440;2022-09-21T20:43:20;8.63;;;4.20;;
65998;SDS011;52766;56.008;37.440;2022-09-21T20:45:54;10.55;;;4.95;;
65998;SDS011;52766;56.008;37.440;2022-09-21T20:48:29;11.50;;;4.00;;
65998;SDS011;52766;56.008;37.440;2022-09-21T20:51:00;8.75;;;4.40;;
65998;SDS011;52766;56.008;37.440;2022-09-21T20:59:25;9.45;;;4.47;;
65998;SDS011;52766;56.008;37.440;2022-09-21T21:02:24;7.78;;;4.03;;
65998;SDS011;52766;56.008;37.440;2022-09-21T21:05:10;8.95;;;4.07;;
65998;SDS011;52766;56.008;37.440;2022-09-21T21:07:44;9.20;;;4.72;;
65998;SDS011;52766;56.008;37.440;2022-09-21T21:10:15;6.97;;;3.72;;
65998;SDS011;52766;56.008;37.440;2022-09-21T21:12:45;8.48;;;4.20;;
65998;SDS011;52766;56.008;37.440;2022-09-21T21:15:23;7.47;;;4.22;;
65998;SDS011;52766;56.008;37.440;2022-09-21T21:17:53;9.27;;;4.93;;
65998;SDS011;52766;56.008;37.440;2022-09-21T21:20:20;8.35;;;3.97;;
65998;SDS011;52766;56.008;37.440;2022-09-21T21:22:51;9.23;;;4.45;;
65998;SDS011;52766;56.008;37.440;2022-09-21T21:25:33;9.70;;;4.00;;
65998;SDS011;52766;56.008;37.440;2022-09-21T21:28:08;8.55;;;4.47;;
65998;SDS011;52766;56.008;37.440;2022-09-21T21:30:44;8.35;;;4.55;;
65998;SDS011;52766;56.008;37.440;2022-09-21T21:33:16;8.95;;;3.75;;
65998;SDS011;52766;56.008;37.440;2022-09-21T21:35:44;8.95;;;4.57;;
65998;SDS011;52766;56.008;37.440;2022-09-21T21:38:13;8.15;;;4.05;;
65998;SDS011;52766;56.008;37.440;2022-09-21T21:40:41;6.85;;;3.45;;
65998;SDS011;52766;56.008;37.440;2022-09-21T21:43:10;8.38;;;4.00;;
65998;SDS011;52766;56.008;37.440;2022-09-21T21:45:41;8.52;;;3.97;;
65998;SDS011;52766;56.008;37.440;2022-09-21T21:48:14;7.60;;;3.78;;
65998;SDS011;52766;56.008;37.440;2022-09-21T21:50:42;8.30;;;3.72;;
65998;SDS011;52766;56.008;37.440;2022-09-21T21:53:11;6.43;;;3.20;;
65998;SDS011;52766;56.008;37.440;2022-09-21T21:56:06;10.38;;;3.85;;
65998;SDS011;52766;56.008;37.440;2022-09-21T21:58:44;8.70;;;4.03;;
65998;SDS011;52766;56.008;37.440;2022-09-21T22:01:15;8.30;;;3.95;;
65998;SDS011;52766;56.008;37.440;2022-09-21T22:03:45;9.32;;;4.15;;
65998;SDS011;52766;56.008;37.440;2022-09-21T22:06:15;6.75;;;3.72;;
65998;SDS011;52766;56.008;37.440;2022-09-21T22:08:46;9.43;;;4.47;;
65998;SDS011;52766;56.008;37.440;2022-09-21T22:11:15;9.27;;;4.15;;
65998;SDS011;52766;56.008;37.440;2022-09-21T22:13:43;7.72;;;3.47;;
65998;SDS011;52766;56.008;37.440;2022-09-21T22:16:43;7.60;;;3.67;;
65998;SDS011;52766;56.008;37.440;2022-09-21T22:19:16;8.77;;;4.15;;
65998;SDS011;52766;56.008;37.440;2022-09-21T22:21:46;5.90;;;3.47;;
65998;SDS011;52766;56.008;37.440;2022-09-21T22:24:19;7.75;;;3.60;;
65998;SDS011;52766;56.008;37.440;2022-09-21T22:27:19;11.02;;;4.05;;
65998;SDS011;52766;56.008;37.440;2022-09-21T22:29:51;7.47;;;4.05;;
65998;SDS011;52766;56.008;37.440;2022-09-21T22:32:18;8.15;;;4.05;;
65998;SDS011;52766;56.008;37.440;2022-09-21T22:34:44;7.93;;;3.65;;
65998;SDS011;52766;56.008;37.440;2022-09-21T22:37:12;8.63;;;3.75;;
65998;SDS011;52766;56.008;37.440;2022-09-21T22:39:38;7.72;;;3.40;;
65998;SDS011;52766;56.008;37.440;2022-09-21T22:42:09;10.90;;;3.70;;
65998;SDS011;52766;56.008;37.440;2022-09-21T22:44:36;8.32;;;3.67;;
65998;SDS011;52766;56.008;37.440;2022-09-21T22:47:02;11.23;;;4.10;;
65998;SDS011;52766;56.008;37.440;2022-09-21T22:49:28;7.15;;;3.30;;
65998;SDS011;52766;56.008;37.440;2022-09-21T22:51:54;7.00;;;4.35;;
65998;SDS011;52766;56.008;37.440;2022-09-21T22:54:20;7.53;;;3.88;;
65998;SDS011;52766;56.008;37.440;2022-09-21T22:56:46;7.90;;;4.05;;
65998;SDS011;52766;56.008;37.440;2022-09-21T22:59:12;8.32;;;3.95;;
65998;SDS011;52766;56.008;37.440;2022-09-21T23:01:40;8.48;;;4.38;;
65998;SDS011;52766;56.008;37.440;2022-09-21T23:04:10;7.57;;;4.05;;
65998;SDS011;52766;56.008;37.440;2022-09-21T23:06:43;6.20;;;3.55;;
65998;SDS011;52766;56.008;37.440;2022-09-21T23:09:19;8.32;;;4.22;;
65998;SDS011;52766;56.008;37.440;2022-09-21T23:11:52;6.72;;;3.53;;
65998;SDS011;52766;56.008;37.440;2022-09-21T23:14:18;6.18;;;3.70;;
65998;SDS011;52766;56.008;37.440;2022-09-21T23:16:47;6.55;;;3.60;;